Terminal Aerodrome Forecast
Issued by NWS

Home | Current Version | Previous Version | Text Only | Print | Product List | Glossary On
Versions: 1 2 3 4 5 6 7 8 9 10 11 12 13 14 15 16 17 18
000
FTUS43 KFGF 260100 AAA
TAFDVL
TAF AMD
KDVL 260127Z 2601/2624 19009KT P6SM BKN070
     FM260600 28018G26KT P6SM BKN050
     FM261200 30012G20KT P6SM BKN050
      AMD LTD TO CLD VIS AND WIND=

USA.gov is the U.S. government's official web portal to all federal, state and local government web resources and services.